createdAt,value
2022-12-16T00:03:18.658Z,100.00
2022-12-16T00:08:20.154Z,100.00
2022-12-16T00:13:21.485Z,100.00
2022-12-16T00:18:23.498Z,100.00
2022-12-16T00:23:24.928Z,100.00
2022-12-16T00:28:26.798Z,100.00
2022-12-16T00:33:29.264Z,100.00
2022-12-16T00:38:30.797Z,100.00
2022-12-16T00:43:32.842Z,100.00
2022-12-16T00:48:34.584Z,100.00
2022-12-16T00:53:36.564Z,100.00
2022-12-16T00:58:38.519Z,100.00
2022-12-16T01:03:40.768Z,100.00
2022-12-16T01:08:43.033Z,100.00
2022-12-16T01:13:45.003Z,100.00
2022-12-16T01:18:46.825Z,100.00
2022-12-16T01:23:48.346Z,100.00
2022-12-16T01:28:49.850Z,100.00
2022-12-16T01:33:51.235Z,100.00
2022-12-16T01:38:52.748Z,100.00
2022-12-16T01:44:13.974Z,100.00
2022-12-16T01:49:39.848Z,100.00
2022-12-16T02:00:05.524Z,100.00
2022-12-16T02:05:07.175Z,100.00
2022-12-16T02:10:09.088Z,100.00
2022-12-16T02:15:24.963Z,100.00
2022-12-16T02:20:55.377Z,100.00
2022-12-16T02:26:47.542Z,100.00
2022-12-16T02:32:08.723Z,100.00
2022-12-16T02:37:23.849Z,100.00
2022-12-16T02:42:38.905Z,100.00
2022-12-16T02:47:40.357Z,100.00
2022-12-16T02:52:42.171Z,100.00
2022-12-16T02:58:00.750Z,100.00
2022-12-16T03:03:18.240Z,100.00
2022-12-16T03:08:26.567Z,100.00
2022-12-16T03:13:32.996Z,100.00
2022-12-16T03:24:07.614Z,100.00
2022-12-16T03:29:16.270Z,100.00
2022-12-16T03:39:51.707Z,100.00
2022-12-16T03:44:53.587Z,100.00
2022-12-16T03:49:55.130Z,100.00
2022-12-16T03:54:56.843Z,100.00
2022-12-16T03:59:58.216Z,100.00
2022-12-16T04:04:59.602Z,100.00
2022-12-16T04:10:01.223Z,100.00
2022-12-16T04:15:03.023Z,100.00
2022-12-16T04:20:04.936Z,100.00
2022-12-16T04:30:35.826Z,100.00
2022-12-16T04:35:37.206Z,100.00
2022-12-16T04:40:38.600Z,100.00
2022-12-16T04:45:40.854Z,100.00
2022-12-16T04:50:42.378Z,100.00
2022-12-16T04:55:43.795Z,100.00
2022-12-16T05:00:46.440Z,100.00
2022-12-16T05:05:48.349Z,100.00
2022-12-16T05:10:49.680Z,100.00
2022-12-16T05:15:51.062Z,100.00
2022-12-16T05:20:52.554Z,100.00
2022-12-16T05:25:53.980Z,100.00
2022-12-16T05:36:14.359Z,100.00
2022-12-16T05:41:15.757Z,100.00
2022-12-16T05:46:17.352Z,100.00
2022-12-16T05:51:18.786Z,100.00
2022-12-16T05:56:20.133Z,100.00
2022-12-16T06:01:21.690Z,100.00
2022-12-16T06:06:23.160Z,100.00
2022-12-16T06:11:24.672Z,100.00
2022-12-16T06:16:26.508Z,100.00
2022-12-16T06:21:27.921Z,100.00
2022-12-16T06:26:29.347Z,100.00
2022-12-16T06:31:30.888Z,100.00
2022-12-16T06:36:32.302Z,100.00
2022-12-16T06:41:33.748Z,100.00
2022-12-16T06:46:35.065Z,100.00
2022-12-16T06:51:36.485Z,100.00
2022-12-16T06:56:38.265Z,100.00
2022-12-16T07:01:39.776Z,100.00
2022-12-16T07:06:41.301Z,100.00
2022-12-16T07:11:42.727Z,100.00
2022-12-16T07:16:44.783Z,100.00
2022-12-16T07:21:46.256Z,100.00
2022-12-16T07:26:47.664Z,100.00
2022-12-16T07:31:49.114Z,100.00
2022-12-16T07:36:50.455Z,100.00
2022-12-16T07:41:52.111Z,100.00
2022-12-16T07:46:53.498Z,100.00
2022-12-16T07:51:56.871Z,100.00
2022-12-16T07:56:58.296Z,100.00
2022-12-16T08:01:59.800Z,100.00
2022-12-16T08:07:01.292Z,100.00
2022-12-16T08:12:02.704Z,100.00
2022-12-16T08:17:04.261Z,100.00
2022-12-16T08:22:07.113Z,100.00
2022-12-16T08:27:08.578Z,100.00
2022-12-16T08:32:09.960Z,100.00
2022-12-16T08:37:11.506Z,100.00
2022-12-16T08:42:12.930Z,100.00
2022-12-16T08:47:14.376Z,100.00
2022-12-16T08:52:15.967Z,100.00
2022-12-16T08:57:17.433Z,100.00
2022-12-16T09:02:19.252Z,100.00
2022-12-16T09:07:20.831Z,100.00
2022-12-16T09:12:22.207Z,100.00
2022-12-16T09:17:23.628Z,100.00
2022-12-16T09:22:24.977Z,100.00
2022-12-16T09:27:26.341Z,100.00
2022-12-16T09:32:27.945Z,100.00
2022-12-16T09:37:29.288Z,100.00
2022-12-16T09:42:35.859Z,100.00
2022-12-16T09:47:45.072Z,100.00
2022-12-16T09:52:52.945Z,100.00
2022-12-16T09:57:54.583Z,100.00
2022-12-16T10:03:03.442Z,100.00
2022-12-16T10:08:39.462Z,100.00
2022-12-16T10:13:51.520Z,100.00
2022-12-16T10:19:27.072Z,100.00
2022-12-16T10:24:52.829Z,100.00
2022-12-16T10:29:55.108Z,100.00
2022-12-16T10:34:57.450Z,100.00
2022-12-16T10:40:00.646Z,100.00
2022-12-16T10:45:03.386Z,100.00
2022-12-16T10:50:05.516Z,100.00
2022-12-16T10:55:30.420Z,100.00
2022-12-16T11:00:39.674Z,100.00
2022-12-16T11:05:41.186Z,100.00
2022-12-16T11:10:44.725Z,100.00
2022-12-16T11:15:46.265Z,100.00
2022-12-16T11:21:11.324Z,100.00
2022-12-16T11:26:17.596Z,100.00
2022-12-16T11:31:19.104Z,100.00
2022-12-16T11:36:23.297Z,100.00
2022-12-16T11:41:29.818Z,100.00
2022-12-16T11:46:31.691Z,100.00
2022-12-16T11:51:36.016Z,100.00
2022-12-16T11:56:40.465Z,100.00
2022-12-16T12:01:52.244Z,100.00
2022-12-16T12:07:06.848Z,100.00
2022-12-16T12:12:20.459Z,100.00
2022-12-16T12:17:32.959Z,100.00
2022-12-16T12:22:37.059Z,100.00
2022-12-16T12:28:00.323Z,100.00
2022-12-16T12:33:20.537Z,100.00
2022-12-16T12:38:31.625Z,100.00
2022-12-16T12:43:52.996Z,99.08
2022-12-16T12:49:46.941Z,99.13
2022-12-16T12:54:59.182Z,97.45
2022-12-16T13:00:10.176Z,97.35
2022-12-16T13:05:17.442Z,94.56
2022-12-16T13:10:26.447Z,94.72
2022-12-16T13:15:38.980Z,94.94
2022-12-16T13:20:40.510Z,94.18
2022-12-16T13:25:51.732Z,94.48
2022-12-16T13:31:03.872Z,96.06
2022-12-16T13:36:06.560Z,98.54
2022-12-16T13:41:37.240Z,100.00
2022-12-16T13:46:47.037Z,100.00
2022-12-16T13:52:02.039Z,100.00
2022-12-16T13:57:04.558Z,100.00
2022-12-16T14:02:19.536Z,100.00
2022-12-16T14:07:24.930Z,100.00
2022-12-16T14:12:49.426Z,100.00
2022-12-16T14:18:02.748Z,100.00
2022-12-16T14:23:55.334Z,100.00
2022-12-16T14:28:49.794Z,100.00
2022-12-16T14:33:54.521Z,100.00
2022-12-16T14:38:56.704Z,100.00
2022-12-16T14:43:58.349Z,100.00
2022-12-16T14:48:59.749Z,100.00
2022-12-16T14:54:42.391Z,100.00
2022-12-16T14:59:43.832Z,100.00
2022-12-16T15:04:45.833Z,100.00
2022-12-16T15:09:52.499Z,100.00
2022-12-16T15:14:58.672Z,100.00
2022-12-16T15:20:03.390Z,100.00
2022-12-16T15:25:06.271Z,100.00
2022-12-16T15:30:43.280Z,100.00
2022-12-16T15:35:44.757Z,100.00
2022-12-16T15:40:50.897Z,100.00
2022-12-16T15:45:52.386Z,100.00
2022-12-16T15:50:53.919Z,100.00
2022-12-16T15:56:02.579Z,100.00
2022-12-16T16:01:08.187Z,100.00
2022-12-16T16:06:22.251Z,100.00
2022-12-16T16:11:23.635Z,100.00
2022-12-16T16:16:25.296Z,100.00
2022-12-16T16:21:27.364Z,100.00
2022-12-16T16:26:28.906Z,100.00
2022-12-16T16:31:30.409Z,100.00
2022-12-16T16:36:31.832Z,100.00
2022-12-16T16:41:33.276Z,100.00
2022-12-16T16:46:37.837Z,100.00
2022-12-16T16:51:39.305Z,100.00
2022-12-16T16:56:40.809Z,100.00
2022-12-16T17:01:42.393Z,100.00
2022-12-16T17:06:43.867Z,100.00
2022-12-16T17:11:45.317Z,100.00
2022-12-16T17:16:46.710Z,100.00
2022-12-16T17:21:48.232Z,100.00
2022-12-16T17:26:49.712Z,100.00
2022-12-16T17:31:51.153Z,100.00
2022-12-16T17:36:53.979Z,100.00
2022-12-16T17:41:55.553Z,100.00
2022-12-16T17:46:57.137Z,100.00
2022-12-16T17:51:58.707Z,100.00
2022-12-16T17:57:00.369Z,100.00
2022-12-16T18:02:02.327Z,100.00
2022-12-16T18:07:03.863Z,100.00
2022-12-16T18:12:05.488Z,100.00
2022-12-16T18:17:06.963Z,100.00
2022-12-16T18:22:08.472Z,100.00
2022-12-16T18:27:09.964Z,100.00
2022-12-16T18:32:11.669Z,100.00
2022-12-16T18:37:13.525Z,100.00
2022-12-16T18:42:14.885Z,100.00
2022-12-16T18:47:16.938Z,100.00
2022-12-16T18:52:19.338Z,100.00
2022-12-16T18:57:20.746Z,100.00
2022-12-16T19:02:22.361Z,100.00
2022-12-16T19:07:23.879Z,100.00
2022-12-16T19:12:25.285Z,100.00
2022-12-16T19:17:26.652Z,100.00
2022-12-16T19:22:27.984Z,100.00
2022-12-16T19:27:29.489Z,100.00
2022-12-16T19:32:31.005Z,100.00
2022-12-16T19:37:32.483Z,100.00
2022-12-16T19:42:34.037Z,100.00
2022-12-16T19:47:35.489Z,100.00
2022-12-16T19:52:37.017Z,100.00
2022-12-16T19:57:38.522Z,100.00
2022-12-16T20:02:40.090Z,100.00
2022-12-16T20:07:41.636Z,100.00
2022-12-16T20:12:43.036Z,100.00
2022-12-16T20:17:44.438Z,100.00
2022-12-16T20:22:45.831Z,100.00
2022-12-16T20:27:47.320Z,100.00
2022-12-16T20:32:48.908Z,100.00
2022-12-16T20:37:50.325Z,100.00
2022-12-16T20:42:53.340Z,100.00
2022-12-16T20:47:56.419Z,100.00
2022-12-16T20:52:58.134Z,100.00
2022-12-16T20:57:59.609Z,100.00
2022-12-16T21:03:01.084Z,100.00
2022-12-16T21:08:02.539Z,100.00
2022-12-16T21:13:13.837Z,100.00
2022-12-16T21:18:15.228Z,100.00
2022-12-16T21:23:16.586Z,100.00
2022-12-16T21:28:17.963Z,100.00
2022-12-16T21:33:21.002Z,100.00
2022-12-16T21:38:22.372Z,100.00
2022-12-16T21:43:24.290Z,100.00
2022-12-16T21:48:25.639Z,100.00
2022-12-16T21:53:27.024Z,100.00
2022-12-16T21:58:28.731Z,100.00
2022-12-16T22:03:35.178Z,100.00
2022-12-16T22:08:36.823Z,100.00
2022-12-16T22:13:38.712Z,100.00
2022-12-16T22:18:43.674Z,100.00
2022-12-16T22:23:45.184Z,100.00
2022-12-16T22:28:46.909Z,100.00
2022-12-16T22:33:50.271Z,100.00
2022-12-16T22:38:52.676Z,100.00
2022-12-16T22:43:54.117Z,100.00
2022-12-16T22:48:57.655Z,100.00
2022-12-16T22:53:59.517Z,100.00
2022-12-16T22:59:00.921Z,100.00
2022-12-16T23:04:02.483Z,100.00
2022-12-16T23:09:05.201Z,100.00
2022-12-16T23:14:06.620Z,100.00
2022-12-16T23:19:08.046Z,100.00
2022-12-16T23:24:10.632Z,100.00
2022-12-16T23:29:12.068Z,100.00
2022-12-16T23:34:14.225Z,100.00
2022-12-16T23:39:15.788Z,100.00
2022-12-16T23:44:17.162Z,100.00
2022-12-16T23:49:18.525Z,100.00
2022-12-16T23:54:19.820Z,100.00
2022-12-16T23:59:21.168Z,100.00
